createdAt,value
2019-04-30T00:01:17.393Z,12.43
2019-04-30T00:03:55.856Z,13.10
2019-04-30T00:06:28.819Z,12.83
2019-04-30T00:08:55.042Z,13.00
2019-04-30T00:11:25.388Z,13.10
2019-04-30T00:13:58.719Z,12.43
2019-04-30T00:16:25.816Z,12.77
2019-04-30T00:19:00.055Z,12.43
2019-04-30T00:21:26.213Z,13.47
2019-04-30T00:23:56.096Z,13.07
2019-04-30T00:26:26.129Z,13.07
2019-04-30T00:28:55.489Z,13.60
2019-04-30T00:31:27.502Z,14.17
2019-04-30T00:33:57.887Z,15.10
2019-04-30T00:36:33.448Z,13.80
2019-04-30T00:38:57.952Z,14.73
2019-04-30T00:41:30.066Z,14.90
2019-04-30T00:43:58.416Z,14.33
2019-04-30T00:46:29.425Z,15.17
2019-04-30T00:49:08.832Z,15.00
2019-04-30T00:51:29.869Z,16.10
2019-04-30T00:53:59.153Z,16.13
2019-04-30T00:56:28.506Z,15.93
2019-04-30T00:59:02.310Z,17.27
2019-04-30T01:01:48.222Z,16.77
2019-04-30T01:04:28.090Z,16.17
2019-04-30T01:07:00.170Z,16.90
2019-04-30T01:09:28.186Z,16.83
2019-04-30T01:11:57.503Z,17.37
2019-04-30T01:14:28.367Z,17.17
2019-04-30T01:16:59.410Z,16.33
2019-04-30T01:19:32.277Z,16.37
2019-04-30T01:22:00.629Z,16.93
2019-04-30T01:24:31.676Z,16.57
2019-04-30T01:27:06.679Z,16.33
2019-04-30T01:29:40.882Z,17.43
2019-04-30T01:32:10.396Z,17.40
2019-04-30T01:34:37.141Z,17.50
2019-04-30T01:37:06.449Z,16.77
2019-04-30T01:39:35.789Z,16.83
2019-04-30T01:42:07.869Z,17.53
2019-04-30T01:44:36.109Z,16.13
2019-04-30T01:47:05.465Z,16.33
2019-04-30T01:49:41.945Z,15.67
2019-04-30T01:52:05.836Z,15.13
2019-04-30T01:54:35.133Z,15.03
2019-04-30T01:57:22.489Z,15.03
2019-04-30T02:00:04.034Z,13.67
2019-04-30T02:02:35.160Z,14.40
2019-04-30T02:05:04.741Z,13.40
2019-04-30T02:07:34.496Z,14.67
2019-04-30T02:10:04.650Z,13.07
2019-04-30T02:12:33.928Z,14.63
2019-04-30T02:15:03.279Z,13.80
2019-04-30T02:17:32.556Z,13.50
2019-04-30T02:20:01.915Z,13.60
2019-04-30T02:22:31.322Z,12.80
2019-04-30T02:25:01.213Z,13.63
2019-04-30T02:27:30.504Z,13.37
2019-04-30T02:30:02.750Z,12.57
2019-04-30T02:32:30.893Z,12.60
2019-04-30T02:35:09.557Z,12.50
2019-04-30T02:37:43.529Z,11.93
2019-04-30T02:40:11.792Z,11.23
2019-04-30T02:42:41.451Z,11.20
2019-04-30T02:45:12.270Z,11.50
2019-04-30T02:47:42.351Z,10.67
2019-04-30T02:50:18.332Z,9.83
2019-04-30T02:52:44.818Z,10.97
2019-04-30T02:55:19.391Z,11.30
2019-04-30T02:57:49.930Z,10.40
2019-04-30T03:00:20.847Z,9.90
2019-04-30T03:02:51.002Z,9.10
2019-04-30T03:05:20.486Z,9.30
2019-04-30T03:07:53.311Z,9.30
2019-04-30T03:10:21.393Z,8.83
2019-04-30T03:12:50.736Z,8.57
2019-04-30T03:15:22.748Z,8.27
2019-04-30T03:18:00.362Z,8.60
2019-04-30T03:20:51.712Z,8.70
2019-04-30T03:23:21.073Z,8.07
2019-04-30T03:25:50.444Z,8.43
2019-04-30T03:28:20.365Z,7.97
2019-04-30T03:30:56.233Z,8.13
2019-04-30T03:33:22.836Z,7.70
2019-04-30T03:35:53.966Z,7.40
2019-04-30T03:38:22.857Z,7.43
2019-04-30T03:40:52.166Z,7.43
2019-04-30T03:43:21.510Z,7.13
2019-04-30T03:45:50.857Z,7.30
2019-04-30T03:48:20.223Z,7.63
2019-04-30T03:50:56.407Z,7.07
2019-04-30T03:53:21.145Z,7.93
2019-04-30T03:55:50.776Z,7.90
2019-04-30T03:58:21.505Z,7.20
2019-04-30T04:01:10.145Z,7.13
2019-04-30T04:04:00.442Z,6.57
2019-04-30T04:06:35.097Z,5.60
2019-04-30T04:09:21.998Z,6.03
2019-04-30T04:11:50.776Z,6.27
2019-04-30T04:14:20.088Z,5.23
2019-04-30T04:16:50.970Z,5.20
2019-04-30T04:19:20.440Z,5.60
2019-04-30T04:21:50.953Z,5.03
2019-04-30T04:24:20.885Z,5.47
2019-04-30T04:26:50.515Z,5.63
2019-04-30T04:29:20.444Z,4.20
2019-04-30T04:31:50.378Z,3.90
2019-04-30T04:34:20.465Z,4.00
2019-04-30T04:36:50.711Z,3.83
2019-04-30T04:39:20.552Z,3.50
2019-04-30T04:41:50.666Z,3.60
2019-04-30T04:44:20.672Z,2.90
2019-04-30T04:46:50.838Z,5.20
2019-04-30T04:49:20.939Z,4.53
2019-04-30T04:51:50.930Z,3.83
2019-04-30T04:54:20.487Z,3.13
2019-04-30T04:56:53.303Z,6.93
2019-04-30T04:59:21.442Z,3.27
2019-04-30T05:01:50.721Z,2.87
2019-04-30T05:04:20.184Z,2.87
2019-04-30T05:06:50.123Z,2.93
2019-04-30T05:09:19.625Z,2.50
2019-04-30T05:11:49.062Z,3.13
2019-04-30T05:14:18.999Z,2.43
2019-04-30T05:16:48.770Z,2.47
2019-04-30T05:19:18.852Z,2.30
2019-04-30T05:21:49.515Z,2.20
2019-04-30T05:24:19.214Z,2.40
2019-04-30T05:26:48.839Z,2.63
2019-04-30T05:29:19.139Z,2.30
2019-04-30T05:31:48.961Z,2.70
2019-04-30T05:34:18.882Z,2.80
2019-04-30T05:36:49.128Z,3.10
2019-04-30T05:39:19.052Z,4.07
2019-04-30T05:41:49.144Z,2.40
2019-04-30T05:44:19.234Z,2.13
2019-04-30T05:46:49.428Z,1.97
2019-04-30T05:49:20.462Z,1.90
2019-04-30T05:51:55.415Z,2.00
2019-04-30T05:54:21.329Z,1.93
2019-04-30T05:56:50.644Z,1.97
2019-04-30T05:59:20.697Z,1.87
2019-04-30T06:01:50.923Z,2.10
2019-04-30T06:04:20.849Z,2.13
2019-04-30T06:06:50.482Z,1.40
2019-04-30T06:09:34.216Z,1.90
2019-04-30T06:12:29.093Z,3.57
2019-04-30T06:15:16.418Z,3.83
2019-04-30T06:17:59.621Z,8.90
2019-04-30T06:20:21.096Z,5.40
2019-04-30T06:22:52.602Z,4.20
2019-04-30T06:25:31.115Z,4.13
2019-04-30T06:27:54.286Z,2.13
2019-04-30T06:30:25.841Z,4.43
2019-04-30T06:32:56.209Z,5.27
2019-04-30T06:35:26.685Z,2.93
2019-04-30T06:37:56.057Z,3.97
2019-04-30T06:40:25.505Z,2.60
2019-04-30T06:42:55.153Z,2.90
2019-04-30T06:45:25.676Z,1.00
2019-04-30T06:47:58.696Z,1.87
2019-04-30T06:50:29.292Z,1.23
2019-04-30T06:53:01.406Z,3.80
2019-04-30T06:55:30.957Z,7.33
2019-04-30T06:58:11.815Z,6.03
2019-04-30T07:00:40.227Z,11.43
2019-04-30T07:03:10.159Z,3.33
2019-04-30T07:05:40.797Z,6.23
2019-04-30T07:08:37.375Z,4.07
2019-04-30T07:11:16.677Z,3.67
2019-04-30T07:13:52.089Z,5.53
2019-04-30T07:16:20.348Z,4.00
2019-04-30T07:18:49.804Z,3.50
2019-04-30T07:21:19.885Z,2.10
2019-04-30T07:23:49.401Z,1.30
2019-04-30T07:26:23.177Z,1.40
2019-04-30T07:28:54.788Z,1.47
2019-04-30T07:31:20.835Z,2.50
2019-04-30T07:33:53.095Z,3.87
2019-04-30T07:36:21.262Z,6.57
2019-04-30T07:38:56.241Z,8.30
2019-04-30T07:41:21.757Z,3.93
2019-04-30T07:43:51.169Z,3.40
2019-04-30T07:46:20.525Z,3.20
2019-04-30T07:48:50.299Z,5.10
2019-04-30T07:51:21.631Z,5.07
2019-04-30T07:53:51.409Z,2.27
2019-04-30T07:56:28.002Z,2.27
2019-04-30T07:58:51.703Z,2.10
2019-04-30T08:01:21.046Z,2.00
2019-04-30T08:04:02.009Z,1.90
2019-04-30T08:06:31.768Z,2.07
2019-04-30T08:09:02.046Z,4.07
2019-04-30T08:11:34.340Z,2.30
2019-04-30T08:14:03.411Z,1.77
2019-04-30T08:16:33.470Z,1.90
2019-04-30T08:19:02.788Z,2.00
2019-04-30T08:21:32.124Z,1.90
2019-04-30T08:24:01.401Z,2.43
2019-04-30T08:26:30.686Z,2.30
2019-04-30T08:29:00.005Z,2.33
2019-04-30T08:31:29.425Z,2.27
2019-04-30T08:33:59.237Z,2.43
2019-04-30T08:36:29.929Z,1.97
2019-04-30T08:38:59.889Z,2.20
2019-04-30T08:41:29.414Z,2.20
2019-04-30T08:43:59.905Z,1.90
2019-04-30T08:46:29.828Z,2.60
2019-04-30T08:48:59.127Z,1.90
2019-04-30T08:51:30.839Z,2.20
2019-04-30T08:53:59.443Z,2.70
2019-04-30T08:56:29.548Z,2.40
2019-04-30T08:58:59.693Z,2.57
2019-04-30T09:01:29.531Z,2.57
2019-04-30T09:03:59.820Z,2.57
2019-04-30T09:06:30.619Z,2.80
2019-04-30T09:09:11.027Z,2.60
2019-04-30T09:11:51.681Z,2.30
2019-04-30T09:14:12.117Z,2.30
2019-04-30T09:16:41.438Z,2.30
2019-04-30T09:19:10.809Z,2.40
2019-04-30T09:21:40.219Z,2.70
2019-04-30T09:24:10.115Z,2.00
2019-04-30T09:26:39.396Z,2.67
2019-04-30T09:29:09.347Z,4.33
2019-04-30T09:31:40.998Z,6.70
2019-04-30T09:34:17.471Z,9.27
2019-04-30T09:36:41.384Z,6.67
2019-04-30T09:39:10.948Z,3.47
2019-04-30T09:41:41.151Z,5.63
2019-04-30T09:44:11.112Z,5.07
2019-04-30T09:46:40.439Z,3.53
2019-04-30T09:49:10.381Z,3.00
2019-04-30T09:51:40.174Z,3.30
2019-04-30T09:54:12.746Z,4.63
2019-04-30T09:56:41.389Z,2.93
2019-04-30T09:59:10.838Z,3.10
2019-04-30T10:01:40.517Z,5.67
2019-04-30T10:04:10.475Z,3.70
2019-04-30T10:06:40.875Z,3.97
2019-04-30T10:09:12.604Z,4.23
2019-04-30T10:11:59.710Z,3.90
2019-04-30T10:14:29.627Z,3.70
2019-04-30T10:17:10.522Z,4.07
2019-04-30T10:19:39.801Z,6.13
2019-04-30T10:22:09.144Z,4.40
2019-04-30T10:24:39.295Z,4.80
2019-04-30T10:27:12.914Z,5.17
2019-04-30T10:29:41.252Z,6.10
2019-04-30T10:32:10.881Z,6.10
2019-04-30T10:34:40.213Z,5.73
2019-04-30T10:37:10.617Z,5.80
2019-04-30T10:39:39.954Z,6.00
2019-04-30T10:42:09.367Z,5.97
2019-04-30T10:44:38.643Z,6.23
2019-04-30T10:47:09.353Z,6.30
2019-04-30T10:49:39.129Z,6.43
2019-04-30T10:52:09.385Z,6.43
2019-04-30T10:54:39.359Z,6.27
2019-04-30T10:57:08.823Z,5.67
2019-04-30T10:59:38.723Z,5.93
2019-04-30T11:02:09.062Z,6.20
2019-04-30T11:04:39.067Z,6.40
2019-04-30T11:07:08.997Z,6.50
2019-04-30T11:09:39.450Z,5.63
2019-04-30T11:12:09.569Z,5.30
2019-04-30T11:14:39.534Z,5.27
2019-04-30T11:17:09.904Z,5.57
2019-04-30T11:19:40.134Z,6.03
2019-04-30T11:22:10.286Z,5.97
2019-04-30T11:24:54.120Z,6.40
2019-04-30T11:27:12.186Z,6.53
2019-04-30T11:29:42.291Z,6.10
2019-04-30T11:32:17.940Z,5.90
2019-04-30T11:34:47.868Z,6.13
2019-04-30T11:37:18.045Z,6.83
2019-04-30T11:39:47.384Z,6.83
2019-04-30T11:42:16.677Z,7.40
2019-04-30T11:44:45.988Z,7.97
2019-04-30T11:47:27.324Z,8.20
2019-04-30T11:49:57.021Z,7.83
2019-04-30T11:52:26.383Z,8.73
2019-04-30T11:54:55.656Z,7.53
2019-04-30T11:57:25.018Z,9.30
2019-04-30T11:59:54.298Z,8.43
2019-04-30T12:02:29.363Z,9.13
2019-04-30T12:04:59.252Z,9.47
2019-04-30T12:07:56.626Z,10.60
2019-04-30T12:10:54.005Z,9.07
2019-04-30T12:13:31.202Z,10.67
2019-04-30T12:16:01.000Z,10.87
2019-04-30T12:18:30.326Z,10.57
2019-04-30T12:20:59.605Z,11.20
2019-04-30T12:23:28.933Z,11.27
2019-04-30T12:26:00.957Z,13.53
2019-04-30T12:28:29.674Z,12.23
2019-04-30T12:30:59.735Z,14.17
2019-04-30T12:33:29.042Z,11.87
2019-04-30T12:35:59.650Z,11.60
2019-04-30T12:38:29.971Z,12.07
2019-04-30T12:40:59.918Z,12.07
2019-04-30T12:43:29.233Z,11.87
2019-04-30T12:46:03.350Z,12.87
2019-04-30T12:48:39.677Z,13.00
2019-04-30T12:51:32.325Z,13.87
2019-04-30T12:54:09.801Z,14.67
2019-04-30T12:56:44.014Z,15.00
2019-04-30T12:59:13.350Z,15.80
2019-04-30T13:01:43.149Z,15.37
2019-04-30T13:04:12.541Z,16.40
2019-04-30T13:06:42.438Z,17.07
2019-04-30T13:09:13.118Z,17.13
2019-04-30T13:11:44.052Z,16.73
2019-04-30T13:14:14.247Z,16.60
2019-04-30T13:16:44.417Z,15.77
2019-04-30T13:19:13.758Z,18.23
2019-04-30T13:21:43.108Z,18.87
2019-04-30T13:24:12.486Z,18.13
2019-04-30T13:26:41.871Z,17.87
2019-04-30T13:29:16.828Z,18.90
2019-04-30T13:31:46.157Z,19.57
2019-04-30T13:34:39.454Z,17.60
2019-04-30T13:37:09.286Z,17.63
2019-04-30T13:39:52.234Z,19.00
2019-04-30T13:42:30.805Z,18.67
2019-04-30T13:45:00.150Z,17.50
2019-04-30T13:47:29.497Z,19.00
2019-04-30T13:49:59.399Z,20.07
2019-04-30T13:52:31.014Z,21.47
2019-04-30T13:55:00.487Z,19.13
2019-04-30T13:57:29.882Z,19.83
2019-04-30T13:59:59.196Z,23.13
2019-04-30T14:02:31.808Z,23.60
2019-04-30T14:05:13.824Z,23.67
2019-04-30T14:07:56.322Z,22.57
2019-04-30T14:10:26.257Z,21.63
2019-04-30T14:12:58.754Z,23.13
2019-04-30T14:15:29.226Z,22.67
2019-04-30T14:17:59.733Z,23.83
2019-04-30T14:20:29.773Z,22.30
2019-04-30T14:22:59.145Z,27.10
2019-04-30T14:25:28.497Z,25.00
2019-04-30T14:27:59.287Z,26.00
2019-04-30T14:30:29.349Z,24.23
2019-04-30T14:32:59.427Z,25.47
2019-04-30T14:35:29.405Z,30.37
2019-04-30T14:37:59.622Z,25.60
2019-04-30T14:40:30.404Z,24.30
2019-04-30T14:43:11.570Z,23.43
2019-04-30T14:46:01.449Z,24.17
2019-04-30T14:48:36.053Z,24.43
2019-04-30T14:51:05.983Z,24.33
2019-04-30T14:53:53.261Z,23.40
2019-04-30T14:56:44.559Z,26.63
2019-04-30T14:59:32.194Z,27.30
2019-04-30T15:02:08.905Z,23.57
2019-04-30T15:04:39.295Z,24.87
2019-04-30T15:07:09.678Z,24.33
2019-04-30T15:09:39.654Z,25.20
2019-04-30T15:12:09.712Z,25.37
2019-04-30T15:14:41.022Z,24.67
2019-04-30T15:17:10.964Z,25.57
2019-04-30T15:19:40.340Z,26.20
2019-04-30T15:22:09.679Z,25.47
2019-04-30T15:24:39.427Z,25.77
2019-04-30T15:27:09.452Z,24.83
2019-04-30T15:29:39.313Z,25.60
2019-04-30T15:32:09.004Z,27.20
2019-04-30T15:34:40.877Z,25.77
2019-04-30T15:37:19.084Z,26.83
2019-04-30T15:39:44.417Z,26.00
2019-04-30T15:42:15.073Z,27.73
2019-04-30T15:44:45.831Z,27.27
2019-04-30T15:47:15.502Z,28.17
2019-04-30T15:49:44.826Z,26.77
2019-04-30T15:52:14.241Z,28.07
2019-04-30T15:54:43.521Z,28.53
2019-04-30T15:57:12.857Z,26.57
2019-04-30T15:59:43.096Z,27.80
2019-04-30T16:02:30.609Z,27.57
2019-04-30T16:05:18.885Z,25.97
2019-04-30T16:08:10.184Z,23.57
2019-04-30T16:11:10.422Z,23.30
2019-04-30T16:13:58.551Z,23.03
2019-04-30T16:16:32.236Z,21.13
2019-04-30T16:19:01.581Z,22.97
2019-04-30T16:21:30.969Z,22.10
2019-04-30T16:24:00.309Z,18.37
2019-04-30T16:26:29.765Z,20.10
2019-04-30T16:28:59.090Z,21.77
2019-04-30T16:31:29.196Z,22.60
2019-04-30T16:33:59.193Z,22.93
2019-04-30T16:36:29.127Z,22.40
2019-04-30T16:38:59.130Z,22.10
2019-04-30T16:41:31.536Z,21.53
2019-04-30T16:43:59.528Z,27.83
2019-04-30T16:46:29.514Z,23.87
2019-04-30T16:48:59.949Z,23.80
2019-04-30T16:51:29.290Z,24.53
2019-04-30T16:53:58.778Z,21.37
2019-04-30T16:56:28.775Z,23.63
2019-04-30T16:59:03.320Z,22.40
2019-04-30T17:01:34.541Z,23.33
2019-04-30T17:04:23.222Z,22.47
2019-04-30T17:06:59.365Z,22.73
2019-04-30T17:09:36.240Z,22.83
2019-04-30T17:12:20.769Z,23.00
2019-04-30T17:15:09.374Z,22.90
2019-04-30T17:17:40.749Z,24.50
2019-04-30T17:20:11.130Z,23.97
2019-04-30T17:22:41.073Z,24.07
2019-04-30T17:25:10.829Z,26.77
2019-04-30T17:27:40.197Z,27.20
2019-04-30T17:30:12.390Z,25.50
2019-04-30T17:32:41.883Z,26.37
2019-04-30T17:35:12.365Z,25.63
2019-04-30T17:37:41.647Z,26.53
2019-04-30T17:40:11.336Z,25.63
2019-04-30T17:42:40.664Z,26.20
2019-04-30T17:45:11.512Z,26.73
2019-04-30T17:47:40.937Z,26.73
2019-04-30T17:50:11.024Z,27.90
2019-04-30T17:52:40.437Z,27.47
2019-04-30T17:55:10.712Z,26.93
2019-04-30T17:57:40.371Z,28.40
2019-04-30T18:00:18.706Z,29.50
2019-04-30T18:02:43.500Z,27.70
2019-04-30T18:05:13.288Z,27.87
2019-04-30T18:07:42.634Z,31.00
2019-04-30T18:10:14.215Z,28.60
2019-04-30T18:12:43.532Z,29.27
2019-04-30T18:15:17.744Z,34.17
2019-04-30T18:17:52.447Z,29.87
2019-04-30T18:20:39.194Z,24.27
2019-04-30T18:23:33.549Z,23.10
2019-04-30T18:26:10.857Z,22.70
2019-04-30T18:28:40.201Z,22.00
2019-04-30T18:31:09.538Z,22.30
2019-04-30T18:33:38.962Z,22.57
2019-04-30T18:36:09.594Z,22.23
2019-04-30T18:38:39.286Z,21.43
2019-04-30T18:41:09.496Z,20.90
2019-04-30T18:43:40.557Z,21.80
2019-04-30T18:46:10.871Z,22.10
2019-04-30T18:48:40.877Z,22.57
2019-04-30T18:51:23.934Z,21.67
2019-04-30T18:53:41.304Z,22.43
2019-04-30T18:56:14.750Z,22.23
2019-04-30T18:58:43.157Z,22.90
2019-04-30T19:01:12.784Z,21.60
2019-04-30T19:03:42.127Z,21.70
2019-04-30T19:06:22.949Z,21.40
2019-04-30T19:08:54.320Z,21.63
2019-04-30T19:11:39.382Z,21.33
2019-04-30T19:14:36.561Z,23.53
2019-04-30T19:17:25.352Z,21.77
2019-04-30T19:20:18.915Z,20.47
2019-04-30T19:22:48.781Z,26.70
2019-04-30T19:25:19.074Z,24.50
2019-04-30T19:27:49.173Z,27.40
2019-04-30T19:30:19.552Z,24.37
2019-04-30T19:32:49.190Z,22.97
2019-04-30T19:35:19.253Z,22.43
2019-04-30T19:37:48.778Z,22.53
2019-04-30T19:40:19.102Z,23.67
2019-04-30T19:42:50.940Z,21.90
2019-04-30T19:45:20.049Z,23.33
2019-04-30T19:47:49.389Z,22.87
2019-04-30T19:50:19.308Z,23.67
2019-04-30T19:52:49.045Z,24.67
2019-04-30T19:55:20.500Z,24.23
2019-04-30T19:57:51.106Z,23.27
2019-04-30T20:00:20.811Z,24.10
2019-04-30T20:02:50.179Z,24.37
2019-04-30T20:05:19.573Z,24.37
2019-04-30T20:07:49.328Z,24.70
2019-04-30T20:10:19.665Z,26.17
2019-04-30T20:12:49.900Z,25.10
2019-04-30T20:15:24.379Z,25.37
2019-04-30T20:17:50.873Z,24.83
2019-04-30T20:20:20.193Z,26.43
2019-04-30T20:22:51.873Z,26.20
2019-04-30T20:25:20.573Z,26.60
2019-04-30T20:27:49.966Z,26.57
2019-04-30T20:30:19.630Z,25.50
2019-04-30T20:32:51.390Z,25.73
2019-04-30T20:35:21.060Z,25.27
2019-04-30T20:38:09.482Z,25.97
2019-04-30T20:40:43.732Z,25.33
2019-04-30T20:43:13.597Z,25.57
2019-04-30T20:45:43.718Z,25.43
2019-04-30T20:48:13.530Z,26.13
2019-04-30T20:50:42.937Z,25.67
2019-04-30T20:53:12.386Z,26.17
2019-04-30T20:55:42.042Z,27.47
2019-04-30T20:58:11.653Z,26.90
2019-04-30T21:00:41.215Z,26.70
2019-04-30T21:03:10.571Z,26.30
2019-04-30T21:05:39.939Z,26.20
2019-04-30T21:08:10.074Z,25.70
2019-04-30T21:10:39.769Z,25.63
2019-04-30T21:13:11.261Z,26.43
2019-04-30T21:15:40.866Z,26.20
2019-04-30T21:18:10.235Z,27.10
2019-04-30T21:20:40.504Z,27.40
2019-04-30T21:23:10.009Z,26.80
2019-04-30T21:25:39.524Z,28.17
2019-04-30T21:28:09.711Z,28.33
2019-04-30T21:30:39.249Z,28.50
2019-04-30T21:33:18.956Z,28.83
2019-04-30T21:35:51.822Z,28.57
2019-04-30T21:38:21.810Z,28.23
2019-04-30T21:40:51.106Z,27.57
2019-04-30T21:43:20.459Z,27.77
2019-04-30T21:45:49.740Z,28.77
2019-04-30T21:48:19.302Z,28.47
2019-04-30T21:50:49.755Z,33.70
2019-04-30T21:53:19.579Z,43.10
2019-04-30T21:55:49.807Z,43.33
2019-04-30T21:58:20.395Z,34.07
2019-04-30T22:01:16.036Z,30.10
2019-04-30T22:03:46.658Z,37.40
2019-04-30T22:06:16.014Z,33.10
2019-04-30T22:08:45.303Z,34.57
2019-04-30T22:11:15.047Z,33.63
2019-04-30T22:13:44.385Z,30.17
2019-04-30T22:16:13.710Z,31.13
2019-04-30T22:18:43.002Z,30.90
2019-04-30T22:21:12.361Z,28.57
2019-04-30T22:23:41.874Z,25.47
2019-04-30T22:26:11.229Z,24.93
2019-04-30T22:28:41.237Z,25.73
2019-04-30T22:31:11.382Z,25.63
2019-04-30T22:33:40.674Z,25.13
2019-04-30T22:36:24.178Z,24.43
2019-04-30T22:39:13.437Z,26.50
2019-04-30T22:41:42.789Z,25.90
2019-04-30T22:44:12.109Z,24.23
2019-04-30T22:46:41.501Z,25.27
2019-04-30T22:49:10.837Z,24.93
2019-04-30T22:51:40.177Z,25.07
2019-04-30T22:54:09.456Z,23.53
2019-04-30T22:56:38.834Z,25.13
2019-04-30T22:59:08.169Z,23.13
2019-04-30T23:01:51.440Z,26.03
2019-04-30T23:04:30.238Z,23.93
2019-04-30T23:06:59.526Z,23.40
2019-04-30T23:09:28.865Z,23.57
2019-04-30T23:11:58.221Z,24.07
2019-04-30T23:14:27.501Z,23.90
2019-04-30T23:16:56.852Z,24.03
2019-04-30T23:19:26.157Z,25.37
2019-04-30T23:21:55.505Z,26.17
2019-04-30T23:24:24.877Z,26.40
2019-04-30T23:26:54.219Z,24.10
2019-04-30T23:29:23.605Z,26.07
2019-04-30T23:31:52.898Z,27.13
2019-04-30T23:34:22.281Z,26.17
2019-04-30T23:36:51.582Z,28.53
2019-04-30T23:39:20.925Z,27.50
2019-04-30T23:41:50.284Z,24.40
2019-04-30T23:44:19.600Z,28.20
2019-04-30T23:46:49.009Z,27.97
2019-04-30T23:49:18.345Z,27.60
2019-04-30T23:51:50.382Z,27.10
2019-04-30T23:54:18.658Z,24.17
2019-04-30T23:56:48.002Z,25.43
2019-04-30T23:59:18.313Z,24.20
